Time;durP1;ratioP1;P1;durP2;ratioP2;P2;SDS_P1;SDS_P2;PMS_P1;PMS_P2;Temp;Humidity;BMP_temperature;BMP_pressure;BME280_temperature;BME280_humidity;BME280_pressure;Samples;Min_cycle;Max_cycle;Signal;HPM_P1;HPM_P2
2021/03/09 00:04:23;;;;;;;15.93;8.70;;;;;;;-1.88;100.00;98734.59;3686658;80;43297;-18
2021/03/09 00:09:29;;;;;;;16.27;8.93;;;;;;;-1.88;100.00;98735.91;3689737;79;44041;-18
2021/03/09 00:14:35;;;;;;;15.93;8.70;;;;;;;-1.86;100.00;98733.18;3689582;80;44042;-17
2021/03/09 00:19:41;;;;;;;19.80;9.63;;;;;;;-1.83;100.00;98740.96;3689041;78;43995;-18
2021/03/09 00:24:47;;;;;;;15.57;8.67;;;;;;;-1.82;100.00;98731.27;3702110;79;43788;-18
2021/03/09 00:29:53;;;;;;;19.57;9.67;;;;;;;-1.79;100.00;98735.05;3699111;80;43441;-18
2021/03/09 00:34:58;;;;;;;18.27;8.80;;;;;;;-1.77;100.00;98722.63;3702305;80;44007;-17
2021/03/09 00:40:06;;;;;;;16.13;8.90;;;;;;;-1.73;100.00;98731.65;3701495;79;43745;-17
2021/03/09 00:45:14;;;;;;;16.13;8.57;;;;;;;-1.70;100.00;98722.70;3701892;80;43717;-18
2021/03/09 00:50:21;;;;;;;16.93;8.93;;;;;;;-1.69;100.00;98712.53;3699156;79;43682;-18
2021/03/09 00:55:27;;;;;;;14.47;8.07;;;;;;;-1.65;100.00;98710.13;3701723;80;43733;-17
2021/03/09 01:00:33;;;;;;;16.40;8.43;;;;;;;-1.63;100.00;98705.64;3701804;80;44098;-17
2021/03/09 01:05:39;;;;;;;18.47;8.87;;;;;;;-1.62;100.00;98706.47;3698830;80;43427;-18
2021/03/09 01:10:45;;;;;;;18.30;9.37;;;;;;;-1.61;100.00;98706.42;3702215;79;43329;-18
2021/03/09 01:15:51;;;;;;;16.83;8.67;;;;;;;-1.61;100.00;98697.17;3701499;80;43417;-17
2021/03/09 01:20:57;;;;;;;13.83;7.43;;;;;;;-1.56;100.00;98687.69;3700939;79;43676;-18
2021/03/09 01:26:03;;;;;;;16.50;8.27;;;;;;;-1.53;100.00;98685.34;3690747;79;44468;-18
2021/03/09 01:31:10;;;;;;;17.23;8.80;;;;;;;-1.53;100.00;98680.06;3688833;79;43386;-18
2021/03/09 01:36:16;;;;;;;15.20;8.40;;;;;;;-1.54;100.00;98679.22;3689408;79;44128;-17
2021/03/09 01:41:23;;;;;;;17.80;9.00;;;;;;;-1.56;100.00;98666.55;3690642;79;43988;-17
2021/03/09 01:46:28;;;;;;;17.30;8.83;;;;;;;-1.55;100.00;98661.17;3690278;79;44061;-18
2021/03/09 01:51:35;;;;;;;16.47;8.93;;;;;;;-1.52;100.00;98643.45;3692441;79;43768;-18
2021/03/09 01:56:43;;;;;;;14.27;8.10;;;;;;;-1.50;100.00;98638.95;3692085;79;43346;-18
2021/03/09 02:01:50;;;;;;;16.33;8.57;;;;;;;-1.49;100.00;98632.25;3689897;80;43690;-17
2021/03/09 02:06:55;;;;;;;16.00;7.37;;;;;;;-1.50;100.00;98627.91;3689586;80;43762;-18
2021/03/09 02:12:07;;;;;;;14.60;7.90;;;;;;;-1.52;100.00;98632.89;3686747;79;43661;-18
2021/03/09 02:17:18;;;;;;;15.17;7.63;;;;;;;-1.54;100.00;98625.05;3689673;79;44046;-18
2021/03/09 02:22:59;;;;;;;13.73;7.27;;;;;;;-1.55;100.00;98623.34;3690105;78;44345;-18
2021/03/09 02:28:15;;;;;;;12.50;7.00;;;;;;;-1.53;100.00;98616.64;3686916;80;43459;-19
2021/03/09 02:33:22;;;;;;;12.03;6.70;;;;;;;-1.53;100.00;98614.00;3689591;79;43730;-18
2021/03/09 02:38:30;;;;;;;11.57;6.53;;;;;;;-1.53;100.00;98608.72;3685550;80;43433;-19
2021/03/09 02:43:36;;;;;;;12.37;6.97;;;;;;;-1.60;100.00;98599.81;3684227;79;44015;-21
2021/03/09 02:48:42;;;;;;;14.10;7.03;;;;;;;-1.57;100.00;98604.07;3686137;79;43221;-18
2021/03/09 02:53:53;;;;;;;11.93;6.40;;;;;;;-1.60;100.00;98599.81;3684622;79;44022;-18
2021/03/09 02:58:59;;;;;;;11.23;6.33;;;;;;;-1.51;100.00;98589.20;3687655;79;43991;-18
2021/03/09 03:04:08;;;;;;;18.23;6.87;;;;;;;-1.42;100.00;98588.73;3688634;79;43425;-18
2021/03/09 03:09:16;;;;;;;10.23;6.33;;;;;;;-1.38;100.00;98580.63;3685593;79;43500;-18
2021/03/09 03:14:24;;;;;;;14.07;6.97;;;;;;;-1.34;100.00;98584.34;3689703;79;43417;-18
2021/03/09 03:19:31;;;;;;;10.93;6.30;;;;;;;-1.30;100.00;98575.31;3685706;79;43786;-18
2021/03/09 03:24:37;;;;;;;13.10;7.03;;;;;;;-1.25;100.00;98579.03;3688816;78;43291;-19
2021/03/09 03:29:43;;;;;;;12.97;6.57;;;;;;;-1.26;100.00;98570.27;3689935;79;44020;-18
2021/03/09 03:34:50;;;;;;;11.90;6.37;;;;;;;-1.34;100.00;98575.08;3692294;79;43682;-18
2021/03/09 03:39:56;;;;;;;11.67;6.63;;;;;;;-1.31;100.00;98576.73;3690046;79;43364;-18
2021/03/09 03:45:03;;;;;;;15.80;7.40;;;;;;;-1.29;100.00;98573.52;3691568;79;43444;-18
2021/03/09 03:50:14;;;;;;;11.97;5.90;;;;;;;-1.28;100.00;98573.45;3690259;79;44087;-18
2021/03/09 03:55:28;;;;;;;14.37;7.33;;;;;;;-1.27;100.00;98565.91;3684862;79;44048;-19
2021/03/09 04:00:35;;;;;;;12.40;6.47;;;;;;;-1.31;100.00;98560.39;3690502;79;43687;-18
2021/03/09 04:05:46;;;;;;;11.63;6.27;;;;;;;-1.31;100.00;98560.39;3689877;79;43686;-18
2021/03/09 04:10:55;;;;;;;13.00;7.13;;;;;;;-1.34;100.00;98560.55;3690106;79;43318;-19
2021/03/09 04:16:04;;;;;;;12.57;6.77;;;;;;;-1.39;100.00;98567.89;3689851;79;42971;-18
2021/03/09 04:21:11;;;;;;;14.80;7.80;;;;;;;-1.42;100.00;98563.62;3689992;80;44052;-19
2021/03/09 04:26:18;;;;;;;14.67;7.83;;;;;;;-1.47;100.00;98559.53;3698893;78;44022;-18
2021/03/09 04:31:25;;;;;;;17.27;7.33;;;;;;;-1.47;100.00;98552.44;3700947;79;44014;-18
2021/03/09 04:36:32;;;;;;;15.43;8.03;;;;;;;-1.48;100.00;98557.81;3697379;80;44148;-26
2021/03/09 04:41:39;;;;;;;15.73;8.50;;;;;;;-1.51;100.00;98554.84;3701603;79;43413;-18
2021/03/09 04:46:45;;;;;;;16.97;7.27;;;;;;;-1.50;100.00;98553.08;3700730;80;44165;-18
2021/03/09 04:51:52;;;;;;;16.90;7.87;;;;;;;-1.49;100.00;98545.05;3699908;79;44574;-19
2021/03/09 04:56:58;;;;;;;14.83;7.93;;;;;;;-1.50;100.00;98557.05;3700999;78;43686;-19
2021/03/09 05:02:04;;;;;;;14.47;7.80;;;;;;;-1.48;100.00;98548.56;3697748;79;44056;-19
2021/03/09 05:07:10;;;;;;;16.23;8.13;;;;;;;-1.50;100.00;98549.11;3702344;78;42626;-18
2021/03/09 05:12:17;;;;;;;13.77;7.43;;;;;;;-1.50;100.00;98545.15;3700680;79;43499;-19
2021/03/09 05:17:23;;;;;;;16.93;8.87;;;;;;;-1.50;100.00;98544.67;3701491;80;44038;-19
2021/03/09 05:22:31;;;;;;;14.43;7.53;;;;;;;-1.51;100.00;98542.95;3700331;80;44038;-19
2021/03/09 05:27:37;;;;;;;15.57;8.13;;;;;;;-1.48;100.00;98546.77;3688656;79;43227;-19
2021/03/09 05:32:45;;;;;;;16.70;7.60;;;;;;;-1.49;100.00;98533.65;3684406;79;44023;-19
2021/03/09 05:37:51;;;;;;;15.63;8.20;;;;;;;-1.50;100.00;98545.15;3684360;79;44099;-17
2021/03/09 05:42:57;;;;;;;15.93;7.90;;;;;;;-1.54;100.00;98545.79;3687290;79;44063;-17
2021/03/09 05:48:04;;;;;;;17.53;8.40;;;;;;;-1.55;100.00;98550.69;3682619;79;44786;-17
2021/03/09 05:53:10;;;;;;;15.17;8.10;;;;;;;-1.56;100.00;98548.49;3654356;79;44080;-17
2021/03/09 05:58:17;;;;;;;15.43;8.20;;;;;;;-1.57;100.00;98541.98;3671066;79;43755;-16
2021/03/09 06:03:24;;;;;;;14.97;7.37;;;;;;;-1.58;100.00;98542.91;3671742;79;44235;-17
2021/03/09 06:08:31;;;;;;;15.63;8.03;;;;;;;-1.61;100.00;98544.39;3661900;79;43081;-17
2021/03/09 06:13:37;;;;;;;16.70;7.83;;;;;;;-1.58;100.00;98541.11;3657281;79;43302;-17
2021/03/09 06:18:54;;;;;;;16.40;8.37;;;;;;;-1.58;100.00;98535.83;3665143;79;44003;-17
2021/03/09 06:24:14;;;;;;;15.00;7.57;;;;;;;-1.59;100.00;98536.76;3663711;79;44070;-17
2021/03/09 06:29:20;;;;;;;13.93;7.60;;;;;;;-1.57;100.00;98533.57;3659769;79;43690;-17
2021/03/09 06:34:28;;;;;;;14.47;8.33;;;;;;;-1.56;100.00;98536.60;3672591;80;43327;-17
2021/03/09 06:39:55;;;;;;;15.10;7.93;;;;;;;-1.50;100.00;98534.58;3657762;79;44016;-17
2021/03/09 06:45:03;;;;;;;16.63;7.87;;;;;;;-1.42;100.00;98537.66;3668719;79;44019;-17
2021/03/09 06:50:13;;;;;;;14.53;7.93;;;;;;;-1.38;100.00;98528.64;3657762;79;43349;-17
2021/03/09 06:55:21;;;;;;;14.70;7.50;;;;;;;-1.32;100.00;98537.54;3654943;79;43712;-17
2021/03/09 07:00:28;;;;;;;14.30;8.07;;;;;;;-1.25;99.60;98529.67;3662632;79;44113;-18
2021/03/09 07:05:34;;;;;;;13.60;8.07;;;;;;;-1.16;99.48;98531.42;3653069;79;43996;-17
2021/03/09 07:10:40;;;;;;;15.80;7.97;;;;;;;-1.10;97.79;98535.91;3653333;79;43496;-18
2021/03/09 07:15:46;;;;;;;14.10;7.57;;;;;;;-0.99;97.64;98549.83;3665766;79;43440;-17
2021/03/09 07:20:55;;;;;;;15.63;8.03;;;;;;;-0.90;97.91;98544.98;3669542;79;44028;-17
2021/03/09 07:26:03;;;;;;;15.07;8.00;;;;;;;-0.86;96.71;98547.38;3662093;79;43217;-17
2021/03/09 07:31:10;;;;;;;16.20;8.37;;;;;;;-0.74;98.01;98551.11;3669656;79;43626;-17
2021/03/09 07:36:17;;;;;;;15.90;8.80;;;;;;;-0.65;98.34;98552.38;3654429;79;44256;-17
2021/03/09 07:41:23;;;;;;;19.23;9.40;;;;;;;-0.53;98.66;98549.03;3650297;79;44824;-17
2021/03/09 07:46:30;;;;;;;19.53;10.50;;;;;;;-0.38;98.40;98551.75;3671816;79;44099;-17
2021/03/09 07:51:34;;;;;;;17.03;8.73;;;;;;;-0.26;98.51;98552.81;3666794;79;43421;-17
2021/03/09 07:56:40;;;;;;;17.53;9.67;;;;;;;-0.08;99.02;98557.05;3665719;79;44572;-17
2021/03/09 08:01:49;;;;;;;21.53;10.10;;;;;;;0.06;97.68;98554.05;3677741;79;43727;-18
2021/03/09 08:06:54;;;;;;;20.23;10.80;;;;;;;0.13;96.17;98552.73;3666998;80;44071;-17
2021/03/09 08:11:59;;;;;;;19.03;10.07;;;;;;;0.27;96.58;98548.78;3670470;79;44117;-18
2021/03/09 08:17:07;;;;;;;19.87;9.97;;;;;;;0.40;95.48;98548.03;3671409;79;44095;-17
2021/03/09 08:22:13;;;;;;;17.37;9.17;;;;;;;0.52;94.28;98547.28;3664554;79;43493;-18
2021/03/09 08:27:41;;;;;;;18.40;10.23;;;;;;;0.69;94.94;98546.69;3679003;78;44013;-17
2021/03/09 08:32:47;;;;;;;15.83;9.40;;;;;;;0.85;95.04;98546.12;3667563;78;44129;-17
2021/03/09 08:37:54;;;;;;;15.43;9.17;;;;;;;1.03;91.11;98541.91;3670823;78;43848;-18
2021/03/09 08:43:15;;;;;;;17.77;10.30;;;;;;;1.25;92.20;98539.19;3670435;78;43712;-17
2021/03/09 08:48:42;;;;;;;17.83;9.40;;;;;;;1.37;92.56;98528.64;3657993;80;44164;-17
2021/03/09 08:53:48;;;;;;;18.70;9.77;;;;;;;1.49;91.33;98526.97;3673472;80;44094;-17
2021/03/09 08:58:54;;;;;;;18.30;9.60;;;;;;;1.68;91.46;98521.78;3669177;78;44096;-17
2021/03/09 09:04:00;;;;;;;13.60;8.40;;;;;;;1.82;89.48;98515.05;3655889;80;43345;-17
2021/03/09 09:09:07;;;;;;;17.47;9.07;;;;;;;2.08;85.74;98516.41;3671398;78;44066;-17
2021/03/09 09:14:17;;;;;;;14.90;8.53;;;;;;;2.27;83.24;98513.83;3662187;78;43364;-18
2021/03/09 09:19:23;;;;;;;15.40;8.87;;;;;;;2.44;78.62;98509.50;3658026;79;43284;-18
2021/03/09 09:24:28;;;;;;;14.33;8.80;;;;;;;2.74;83.16;98501.66;3666658;80;43673;-17
2021/03/09 09:29:35;;;;;;;17.47;9.50;;;;;;;2.97;78.28;98504.93;3654957;79;43731;-18
2021/03/09 09:34:41;;;;;;;16.40;9.10;;;;;;;3.11;78.58;98502.62;3659846;79;44062;-18
2021/03/09 09:39:47;;;;;;;16.47;9.37;;;;;;;3.06;74.80;98498.47;3677640;79;43977;-18
2021/03/09 09:44:53;;;;;;;14.10;8.63;;;;;;;3.04;78.96;98498.22;3679794;79;43349;-18
2021/03/09 09:50:02;;;;;;;16.97;9.47;;;;;;;3.35;77.52;98495.95;3667740;79;44043;-18
2021/03/09 09:55:10;;;;;;;16.87;9.20;;;;;;;3.36;71.99;98489.17;3659936;79;43676;-18
2021/03/09 10:00:18;;;;;;;17.43;9.60;;;;;;;3.54;72.65;98493.61;3672859;79;43735;-18
2021/03/09 10:05:27;;;;;;;16.57;8.97;;;;;;;3.78;75.05;98486.06;3666282;79;44054;-18
2021/03/09 10:10:34;;;;;;;17.70;9.57;;;;;;;4.04;71.14;98491.72;3671881;79;43468;-18
2021/03/09 10:15:47;;;;;;;16.20;9.10;;;;;;;4.06;69.20;98488.45;3659685;79;42892;-18
2021/03/09 10:21:24;;;;;;;16.10;8.87;;;;;;;4.00;69.71;98483.09;3657202;79;44079;-18
2021/03/09 10:26:35;;;;;;;15.00;8.90;;;;;;;4.22;66.58;98474.78;3656870;78;43331;-18
2021/03/09 10:31:46;;;;;;;13.90;8.40;;;;;;;4.34;65.93;98478.29;3655332;79;43326;-18
2021/03/09 10:36:55;;;;;;;15.53;9.43;;;;;;;4.26;65.41;98474.42;3667195;79;43415;-18
2021/03/09 10:42:21;;;;;;;13.90;8.00;;;;;;;4.56;63.13;98470.79;3673973;79;44035;-18
2021/03/09 10:47:27;;;;;;;13.93;8.03;;;;;;;4.86;63.65;98475.50;3666242;79;44917;-17
2021/03/09 10:52:33;;;;;;;12.93;8.00;;;;;;;4.94;60.27;98465.50;3676980;79;43286;-18
2021/03/09 10:57:39;;;;;;;11.73;7.03;;;;;;;4.84;62.20;98468.09;3659738;79;43686;-18
2021/03/09 11:02:47;;;;;;;12.23;7.13;;;;;;;5.06;56.06;98466.34;3670375;79;43678;-18
2021/03/09 11:07:53;;;;;;;12.23;7.27;;;;;;;5.15;55.73;98459.41;3665594;79;43702;-18
2021/03/09 11:12:58;;;;;;;12.77;6.80;;;;;;;5.04;56.29;98451.80;3661365;79;43483;-17
2021/03/09 11:18:04;;;;;;;12.77;7.50;;;;;;;5.21;55.59;98442.87;3672460;79;44099;-17
2021/03/09 11:23:12;;;;;;;11.57;7.07;;;;;;;5.40;57.30;98448.87;3672091;79;43617;-17
2021/03/09 11:28:17;;;;;;;11.17;6.60;;;;;;;5.51;59.81;98438.13;3665144;79;42785;-17
2021/03/09 11:33:24;;;;;;;10.40;6.63;;;;;;;5.35;56.06;98445.25;3662773;79;43730;-18
2021/03/09 11:38:30;;;;;;;11.37;6.63;;;;;;;5.60;52.82;98435.66;3651859;79;43058;-18
2021/03/09 11:43:36;;;;;;;9.33;5.97;;;;;;;5.71;51.46;98435.59;3665488;79;42616;-18
2021/03/09 11:48:42;;;;;;;11.07;6.50;;;;;;;5.74;53.45;98431.33;3650184;79;43058;-18
2021/03/09 11:53:49;;;;;;;8.60;6.10;;;;;;;5.54;53.99;98424.98;3658089;79;43761;-18
2021/03/09 11:58:54;;;;;;;8.83;6.20;;;;;;;5.63;53.39;98418.03;3649363;79;44086;-18
2021/03/09 12:04:00;;;;;;;10.97;7.07;;;;;;;6.05;54.39;98407.83;3650314;79;43694;-18
2021/03/09 12:09:09;;;;;;;10.40;6.50;;;;;;;6.30;53.63;98403.86;3667933;78;43304;-18
2021/03/09 12:14:15;;;;;;;12.50;7.53;;;;;;;5.95;51.77;98399.72;3641968;80;44075;-19
2021/03/09 12:19:21;;;;;;;13.33;7.33;;;;;;;6.37;53.83;98394.80;3676099;79;44035;-35
2021/03/09 12:24:29;;;;;;;13.13;7.80;;;;;;;6.68;53.60;98395.61;3662644;79;42787;-17
2021/03/09 12:29:39;;;;;;;9.93;6.37;;;;;;;6.68;52.60;98384.06;3665305;79;26473;-18
2021/03/09 12:34:45;;;;;;;11.57;6.67;;;;;;;6.52;51.99;98377.91;3670080;79;44021;-17
2021/03/09 12:39:52;;;;;;;10.03;6.43;;;;;;;6.22;53.86;98364.42;3668018;79;43685;-17
2021/03/09 12:44:59;;;;;;;10.30;6.77;;;;;;;6.42;52.31;98361.80;3670363;79;43730;-17
2021/03/09 12:50:08;;;;;;;13.40;7.90;;;;;;;6.52;51.47;98360.51;3651740;79;43305;-17
2021/03/09 12:55:15;;;;;;;11.93;6.97;;;;;;;6.61;54.48;98349.80;3656751;79;44047;-17
2021/03/09 13:00:23;;;;;;;9.90;6.43;;;;;;;6.73;52.87;98345.19;3657673;79;44027;-17
2021/03/09 13:05:29;;;;;;;9.70;6.30;;;;;;;6.73;52.20;98342.51;3658385;79;44027;-17
2021/03/09 13:10:37;;;;;;;9.27;6.13;;;;;;;6.85;51.08;98335.17;3655641;79;45096;-17
2021/03/09 13:15:43;;;;;;;11.27;6.93;;;;;;;7.04;50.85;98324.97;3663844;79;43673;-17
2021/03/09 13:20:49;;;;;;;11.57;7.23;;;;;;;7.28;49.30;98322.34;3663808;79;43462;-18
2021/03/09 13:25:56;;;;;;;9.83;5.90;;;;;;;7.25;48.09;98325.30;3646230;79;44090;-18
2021/03/09 13:31:03;;;;;;;10.77;6.63;;;;;;;7.42;51.21;98321.56;3650948;79;75968;-18
2021/03/09 13:36:10;;;;;;;9.93;6.63;;;;;;;6.93;49.91;98322.44;3655968;79;42904;-18
2021/03/09 13:41:17;;;;;;;9.53;6.30;;;;;;;7.22;49.55;98321.59;3648663;79;43958;-18
2021/03/09 13:46:23;;;;;;;9.70;6.70;;;;;;;7.17;52.47;98319.82;3664139;79;44090;-18
2021/03/09 13:51:29;;;;;;;10.63;6.67;;;;;;;7.38;53.28;98313.80;3658743;79;44503;-19
2021/03/09 13:56:35;;;;;;;8.55;5.92;;;;;;;7.51;52.58;98302.78;3666901;79;44125;-18
2021/03/09 14:01:41;;;;;;;10.65;7.05;;;;;;;7.28;49.22;98304.92;3650619;79;43398;-18
2021/03/09 14:06:47;;;;;;;9.63;6.13;;;;;;;7.36;53.42;98302.37;3662867;79;44005;-18
2021/03/09 14:11:53;;;;;;;10.43;6.40;;;;;;;7.18;53.22;98309.45;3678851;79;71184;-18
2021/03/09 14:17:01;;;;;;;9.20;6.53;;;;;;;7.06;49.08;98304.25;3664694;80;43460;-18
2021/03/09 14:22:08;;;;;;;10.97;7.13;;;;;;;6.65;52.49;98306.70;3672347;79;43452;-18
2021/03/09 14:27:15;;;;;;;10.53;6.87;;;;;;;6.31;51.03;98301.20;3665714;79;44042;-18
2021/03/09 14:32:21;;;;;;;10.48;7.10;;;;;;;6.11;51.87;98310.52;3693491;78;43310;-18
2021/03/09 14:37:27;;;;;;;10.30;6.53;;;;;;;6.08;52.00;98304.61;3694013;78;71266;-19
2021/03/09 14:42:33;;;;;;;11.87;6.63;;;;;;;6.10;53.43;98306.66;3695927;78;43318;-18
2021/03/09 14:47:39;;;;;;;9.63;6.43;;;;;;;6.20;54.70;98306.20;3696157;78;43676;-18
2021/03/09 14:52:49;;;;;;;12.43;7.40;;;;;;;6.10;53.56;98310.67;3638901;80;44443;-18
2021/03/09 14:57:59;;;;;;;11.07;7.27;;;;;;;6.02;52.58;98310.00;3561392;81;43029;-18
2021/03/09 15:03:06;;;;;;;10.63;7.50;;;;;;;5.76;54.83;98311.76;3695131;78;43312;-18
2021/03/09 15:08:15;;;;;;;11.90;7.37;;;;;;;5.59;56.28;98309.69;3694752;78;43698;-18
2021/03/09 15:13:21;;;;;;;12.00;7.67;;;;;;;5.39;57.39;98310.45;3696032;78;44057;-18
2021/03/09 15:18:27;;;;;;;12.20;7.73;;;;;;;5.30;58.03;98320.55;3695260;78;44050;-18
2021/03/09 15:23:35;;;;;;;13.53;7.00;;;;;;;5.40;61.38;98313.95;3700338;78;43295;-18
2021/03/09 15:28:42;;;;;;;12.47;7.43;;;;;;;5.27;60.81;98316.83;3699642;78;43419;-18
2021/03/09 15:33:50;;;;;;;12.07;7.40;;;;;;;5.14;60.58;98313.00;3696541;78;75504;-18
2021/03/09 15:38:56;;;;;;;13.83;7.87;;;;;;;5.05;61.35;98311.98;3699880;78;44901;-17
2021/03/09 15:44:02;;;;;;;12.90;7.97;;;;;;;4.91;62.59;98321.11;3700464;78;43281;-17
2021/03/09 15:49:09;;;;;;;11.93;7.80;;;;;;;4.91;62.41;98325.63;3703049;78;44146;-18
2021/03/09 15:54:16;;;;;;;13.37;8.10;;;;;;;4.78;63.07;98334.64;3695327;78;43695;-17
2021/03/09 15:59:22;;;;;;;15.60;9.60;;;;;;;4.72;65.01;98335.64;3698146;78;44115;-19
2021/03/09 16:04:28;;;;;;;11.90;7.17;;;;;;;4.62;66.92;98335.06;3635133;80;42897;-18
2021/03/09 16:09:36;;;;;;;13.70;7.87;;;;;;;4.44;69.07;98335.21;3697776;78;44053;-18
2021/03/09 16:14:43;;;;;;;13.37;8.07;;;;;;;4.20;71.91;98338.05;3693878;78;43410;-18
2021/03/09 16:19:50;;;;;;;12.00;7.57;;;;;;;4.09;74.74;98341.09;3700101;79;43546;-18
2021/03/09 16:25:02;;;;;;;14.07;8.03;;;;;;;3.99;76.94;98348.97;3696713;78;44029;-20
2021/03/09 16:30:10;;;;;;;13.60;8.50;;;;;;;3.84;79.21;98351.50;3689146;79;44083;-17
2021/03/09 16:35:16;;;;;;;12.13;7.70;;;;;;;3.69;84.05;98354.87;3658743;79;43673;-18
2021/03/09 16:40:24;;;;;;;15.10;8.63;;;;;;;3.45;87.53;98358.97;3665751;79;44043;-18
2021/03/09 16:45:33;;;;;;;14.20;8.00;;;;;;;3.46;88.91;98354.02;3657577;79;44017;-18
2021/03/09 16:50:39;;;;;;;14.73;7.80;;;;;;;3.49;89.06;98362.61;3656727;79;44585;-19
2021/03/09 16:55:45;;;;;;;14.37;8.67;;;;;;;3.46;90.16;98366.00;3661456;79;44051;-17
2021/03/09 17:00:54;;;;;;;17.43;9.80;;;;;;;3.44;90.26;98383.91;3654500;79;44035;-18
2021/03/09 17:06:00;;;;;;;14.47;8.53;;;;;;;3.45;90.56;98374.95;3646883;79;43749;-18
2021/03/09 17:11:07;;;;;;;18.10;7.93;;;;;;;3.39;91.24;98377.10;3664382;79;43619;-18
2021/03/09 17:16:13;;;;;;;14.53;8.00;;;;;;;3.35;91.45;98384.95;3660342;78;44102;-16
2021/03/09 17:21:20;;;;;;;15.40;8.90;;;;;;;3.28;92.90;98385.05;3673011;79;43257;-18
2021/03/09 17:26:27;;;;;;;14.30;8.47;;;;;;;3.23;93.00;98380.08;3664780;79;26776;-18
2021/03/09 17:31:38;;;;;;;13.37;8.20;;;;;;;3.17;94.74;98391.20;3664046;79;43265;-18
2021/03/09 17:36:44;;;;;;;15.13;8.63;;;;;;;3.13;95.20;98399.05;3681029;79;44035;-17
2021/03/09 17:41:51;;;;;;;13.87;7.67;;;;;;;3.08;96.36;98402.05;3684511;79;44075;-18
2021/03/09 17:46:59;;;;;;;14.53;8.27;;;;;;;3.04;96.82;98398.41;3686021;79;44122;-17
2021/03/09 17:52:09;;;;;;;14.70;7.97;;;;;;;3.02;97.42;98394.51;3676495;79;44012;-16
2021/03/09 17:57:14;;;;;;;15.13;8.63;;;;;;;2.92;98.67;98403.68;3693684;79;43677;-17
2021/03/09 18:02:20;;;;;;;14.53;8.33;;;;;;;2.80;100.00;98399.26;3698566;79;43576;-17
2021/03/09 18:07:26;;;;;;;16.13;8.50;;;;;;;2.73;100.00;98404.64;3699757;79;44103;-17
2021/03/09 18:12:32;;;;;;;14.47;8.57;;;;;;;2.63;100.00;98421.77;3699797;79;44448;-17
2021/03/09 18:17:40;;;;;;;16.83;9.30;;;;;;;2.62;100.00;98428.05;3707409;79;43705;-25
2021/03/09 18:22:48;;;;;;;15.33;8.50;;;;;;;2.57;100.00;98430.17;3667485;79;44063;-18
2021/03/09 18:27:55;;;;;;;15.70;8.53;;;;;;;2.50;100.00;98423.61;3688225;79;43345;-17
2021/03/09 18:33:01;;;;;;;14.87;8.40;;;;;;;2.43;100.00;98424.03;3671696;79;43727;-17
2021/03/09 18:38:08;;;;;;;14.67;8.43;;;;;;;2.40;100.00;98426.94;3684902;79;43680;-17
2021/03/09 18:43:14;;;;;;;13.57;8.10;;;;;;;2.35;100.00;98421.08;3677404;79;43685;-18
2021/03/09 18:48:23;;;;;;;15.43;9.20;;;;;;;2.30;100.00;98429.84;3685897;79;43336;-17
2021/03/09 18:53:31;;;;;;;19.70;9.43;;;;;;;2.28;100.00;98439.27;3672255;79;44056;-17
2021/03/09 18:58:38;;;;;;;16.87;9.17;;;;;;;2.30;100.00;98439.16;3677902;79;44011;-17
2021/03/09 19:03:46;;;;;;;16.53;9.37;;;;;;;2.28;100.00;98440.61;3700993;79;44059;-17
2021/03/09 19:08:52;;;;;;;15.27;9.20;;;;;;;2.25;100.00;98435.98;3685677;79;43357;-18
2021/03/09 19:13:58;;;;;;;15.00;8.30;;;;;;;2.26;100.00;98429.72;3686153;79;43314;-17
2021/03/09 19:19:04;;;;;;;13.07;8.23;;;;;;;2.25;100.00;98425.36;3678360;79;43387;-17
2021/03/09 19:24:11;;;;;;;15.00;8.47;;;;;;;2.26;100.00;98421.25;3670478;79;43809;-17
2021/03/09 19:29:17;;;;;;;15.70;9.10;;;;;;;2.28;100.00;98419.34;3690442;79;43749;-17
2021/03/09 19:34:24;;;;;;;15.50;8.57;;;;;;;2.29;100.00;98422.86;3682054;79;43394;-18
2021/03/09 19:39:30;;;;;;;16.40;8.60;;;;;;;2.27;100.00;98418.13;3682736;79;43804;-17
2021/03/09 19:44:37;;;;;;;13.40;8.37;;;;;;;2.28;100.00;98418.01;3692266;79;44496;-18
2021/03/09 19:49:43;;;;;;;13.30;8.13;;;;;;;2.28;100.00;98415.84;3697313;79;43406;-18
2021/03/09 19:54:49;;;;;;;14.73;8.47;;;;;;;2.25;100.00;98423.53;3691768;79;43688;-17
2021/03/09 19:59:56;;;;;;;16.23;9.00;;;;;;;2.23;100.00;98428.59;3697295;79;44039;-17
2021/03/09 20:05:03;;;;;;;16.10;9.60;;;;;;;2.25;100.00;98435.50;3687956;79;43963;-18
2021/03/09 20:10:11;;;;;;;16.77;8.57;;;;;;;2.29;100.00;98436.98;3676617;79;44017;-18
2021/03/09 20:15:19;;;;;;;15.03;8.67;;;;;;;2.32;100.00;98437.24;3695910;79;44091;-18
2021/03/09 20:20:26;;;;;;;17.20;9.30;;;;;;;2.35;100.00;98432.21;3684772;79;43479;-17
2021/03/09 20:25:32;;;;;;;15.83;9.07;;;;;;;2.32;100.00;98437.24;3683240;79;44176;-17
2021/03/09 20:30:38;;;;;;;17.03;9.73;;;;;;;2.31;100.00;98428.43;3667579;79;43689;-18
2021/03/09 20:35:44;;;;;;;17.70;9.40;;;;;;;2.33;100.00;98430.97;3688058;78;44458;-18
2021/03/09 20:40:52;;;;;;;17.67;9.53;;;;;;;2.29;100.00;98422.86;3682985;79;43603;-18
2021/03/09 20:45:57;;;;;;;15.77;9.53;;;;;;;2.29;100.00;98414.89;3650468;80;44059;-17
2021/03/09 20:51:05;;;;;;;16.13;9.53;;;;;;;2.28;100.00;98415.34;3630842;80;43686;-16
2021/03/09 20:56:11;;;;;;;16.43;9.63;;;;;;;2.29;100.00;98411.73;3646431;80;44803;-17
2021/03/09 21:01:17;;;;;;;17.00;9.90;;;;;;;2.27;100.00;98412.31;3670074;79;43626;-17
2021/03/09 21:06:25;;;;;;;20.13;10.47;;;;;;;2.29;100.00;98416.22;3674641;79;43725;-16
2021/03/09 21:11:31;;;;;;;19.63;11.30;;;;;;;2.28;100.00;98417.17;3674693;79;43688;-17
2021/03/09 21:16:37;;;;;;;18.50;10.57;;;;;;;2.29;100.00;98408.23;3691055;79;43671;-17
2021/03/09 21:21:43;;;;;;;17.00;9.93;;;;;;;2.26;100.00;98411.95;3674707;79;43368;-16
2021/03/09 21:26:49;;;;;;;16.40;9.63;;;;;;;2.20;100.00;98399.56;3683229;79;43733;-16
2021/03/09 21:31:54;;;;;;;18.53;10.90;;;;;;;2.23;100.00;98405.54;3680949;79;42808;-19
2021/03/09 21:37:01;;;;;;;20.67;10.67;;;;;;;2.26;100.00;98397.81;3675784;79;44366;-19
2021/03/09 21:42:07;;;;;;;18.77;10.93;;;;;;;2.24;100.00;98401.06;3545353;81;42610;-20
2021/03/09 21:47:13;;;;;;;19.47;10.67;;;;;;;2.21;100.00;98397.28;3612917;80;44042;-19
2021/03/09 21:52:20;;;;;;;18.33;10.83;;;;;;;2.22;100.00;98393.66;3618050;80;43452;-19
2021/03/09 21:57:26;;;;;;;22.23;11.93;;;;;;;2.14;100.00;98388.43;3589296;81;43669;-19
2021/03/09 22:02:32;;;;;;;21.13;11.20;;;;;;;2.15;100.00;98390.13;3719002;78;44513;-19
2021/03/09 22:07:38;;;;;;;19.83;11.00;;;;;;;2.15;100.00;98384.81;3687869;78;43967;-18
2021/03/09 22:12:43;;;;;;;18.90;11.60;;;;;;;2.08;100.00;98382.20;3696378;79;44091;-19
2021/03/09 22:17:49;;;;;;;21.97;12.10;;;;;;;2.13;100.00;98384.06;3652814;80;43350;-19
2021/03/09 22:22:55;;;;;;;23.33;10.97;;;;;;;2.11;100.00;98398.43;3703087;78;43584;-19
2021/03/09 22:28:01;;;;;;;18.90;10.67;;;;;;;2.06;100.00;98392.09;3705475;79;44963;-18
2021/03/09 22:33:07;;;;;;;21.80;11.53;;;;;;;2.05;100.00;98390.88;3634197;80;43668;-19
2021/03/09 22:38:13;;;;;;;22.33;11.90;;;;;;;1.98;100.00;98383.35;3680552;79;43672;-20
2021/03/09 22:43:21;;;;;;;21.80;11.93;;;;;;;1.89;100.00;98379.98;3699454;79;43711;-20
2021/03/09 22:48:27;;;;;;;21.20;12.63;;;;;;;1.79;100.00;98379.80;3668886;79;43460;-19
2021/03/09 22:53:34;;;;;;;21.70;12.10;;;;;;;1.73;100.00;98383.36;3668928;79;43975;-18
2021/03/09 22:58:40;;;;;;;22.17;12.43;;;;;;;1.63;100.00;98391.10;3667258;79;43705;-19
2021/03/09 23:03:46;;;;;;;23.27;12.97;;;;;;;1.70;100.00;98387.09;3670842;79;43341;-18
2021/03/09 23:08:52;;;;;;;24.03;13.60;;;;;;;1.63;100.00;98383.13;3651910;79;44005;-19
2021/03/09 23:13:58;;;;;;;23.67;12.70;;;;;;;1.66;100.00;98377.63;3663444;79;44536;-19
2021/03/09 23:19:06;;;;;;;22.60;12.53;;;;;;;1.67;100.00;98378.83;3675098;79;44928;-19
2021/03/09 23:24:13;;;;;;;23.07;12.57;;;;;;;1.61;100.00;98383.71;3650659;79;43679;-20
2021/03/09 23:29:18;;;;;;;24.33;13.80;;;;;;;1.59;100.00;98379.02;3676820;79;43709;-19
2021/03/09 23:34:24;;;;;;;22.83;13.10;;;;;;;1.54;100.00;98392.58;3671968;79;43228;-19
2021/03/09 23:39:30;;;;;;;24.83;13.10;;;;;;;1.52;100.00;98383.89;3681927;79;42982;-19
2021/03/09 23:44:36;;;;;;;24.47;13.13;;;;;;;1.50;100.00;98387.95;3680650;79;43366;-19
2021/03/09 23:49:42;;;;;;;24.97;13.73;;;;;;;1.51;100.00;98390.15;3671521;79;43680;-19
2021/03/09 23:54:49;;;;;;;24.57;13.73;;;;;;;1.51;100.00;98390.98;3689815;79;43706;-19